sensor_id;sensor_type;location;lat;lon;timestamp;temperature;humidity
2751;DHT22;1383;48.362;10.908;2022-08-24T00:02:11;17.00;60.60
2751;DHT22;1383;48.362;10.908;2022-08-24T00:04:38;16.90;59.90
2751;DHT22;1383;48.362;10.908;2022-08-24T00:07:05;16.90;60.50
2751;DHT22;1383;48.362;10.908;2022-08-24T00:09:53;16.90;61.10
2751;DHT22;1383;48.362;10.908;2022-08-24T00:12:21;16.80;61.50
2751;DHT22;1383;48.362;10.908;2022-08-24T00:14:47;16.80;61.50
2751;DHT22;1383;48.362;10.908;2022-08-24T00:17:16;16.70;61.50
2751;DHT22;1383;48.362;10.908;2022-08-24T00:19:43;16.70;62.20
2751;DHT22;1383;48.362;10.908;2022-08-24T00:22:10;16.60;61.90
2751;DHT22;1383;48.362;10.908;2022-08-24T00:24:36;16.50;62.30
2751;DHT22;1383;48.362;10.908;2022-08-24T00:27:06;16.50;62.30
2751;DHT22;1383;48.362;10.908;2022-08-24T00:29:34;16.60;62.30
2751;DHT22;1383;48.362;10.908;2022-08-24T00:32:01;16.70;62.30
2751;DHT22;1383;48.362;10.908;2022-08-24T00:34:29;16.70;61.90
2751;DHT22;1383;48.362;10.908;2022-08-24T00:36:57;16.60;62.60
2751;DHT22;1383;48.362;10.908;2022-08-24T00:39:24;16.50;62.70
2751;DHT22;1383;48.362;10.908;2022-08-24T00:41:52;16.50;63.60
2751;DHT22;1383;48.362;10.908;2022-08-24T00:44:20;16.50;63.60
2751;DHT22;1383;48.362;10.908;2022-08-24T00:46:57;16.50;63.90
2751;DHT22;1383;48.362;10.908;2022-08-24T00:49:41;16.50;63.90
2751;DHT22;1383;48.362;10.908;2022-08-24T00:52:17;16.50;63.70
2751;DHT22;1383;48.362;10.908;2022-08-24T00:54:48;16.50;64.00
2751;DHT22;1383;48.362;10.908;2022-08-24T00:57:20;16.40;64.30
2751;DHT22;1383;48.362;10.908;2022-08-24T00:59:54;16.40;64.60
2751;DHT22;1383;48.362;10.908;2022-08-24T01:02:26;16.30;64.70
2751;DHT22;1383;48.362;10.908;2022-08-24T01:05:01;16.30;65.00
2751;DHT22;1383;48.362;10.908;2022-08-24T01:07:29;16.20;65.10
2751;DHT22;1383;48.362;10.908;2022-08-24T01:10:04;16.20;66.60
2751;DHT22;1383;48.362;10.908;2022-08-24T01:12:33;16.20;66.60
2751;DHT22;1383;48.362;10.908;2022-08-24T01:15:02;16.20;67.00
2751;DHT22;1383;48.362;10.908;2022-08-24T01:17:31;16.10;66.80
2751;DHT22;1383;48.362;10.908;2022-08-24T01:20:17;16.10;67.10
2751;DHT22;1383;48.362;10.908;2022-08-24T01:25:49;16.10;67.80
2751;DHT22;1383;48.362;10.908;2022-08-24T01:28:18;16.00;68.60
2751;DHT22;1383;48.362;10.908;2022-08-24T01:30:52;16.00;68.40
2751;DHT22;1383;48.362;10.908;2022-08-24T01:33:28;15.90;68.60
2751;DHT22;1383;48.362;10.908;2022-08-24T01:36:03;15.90;68.20
2751;DHT22;1383;48.362;10.908;2022-08-24T01:38:31;15.90;68.50
2751;DHT22;1383;48.362;10.908;2022-08-24T01:41:01;15.80;68.90
2751;DHT22;1383;48.362;10.908;2022-08-24T01:43:29;15.80;69.00
2751;DHT22;1383;48.362;10.908;2022-08-24T01:45:59;15.80;69.00
2751;DHT22;1383;48.362;10.908;2022-08-24T01:48:26;15.70;69.70
2751;DHT22;1383;48.362;10.908;2022-08-24T01:50:53;15.70;70.60
2751;DHT22;1383;48.362;10.908;2022-08-24T01:53:20;15.70;70.50
2751;DHT22;1383;48.362;10.908;2022-08-24T01:55:47;15.70;70.60
2751;DHT22;1383;48.362;10.908;2022-08-24T01:58:14;15.70;70.00
2751;DHT22;1383;48.362;10.908;2022-08-24T02:00:42;15.80;69.50
2751;DHT22;1383;48.362;10.908;2022-08-24T02:03:10;15.80;69.10
2751;DHT22;1383;48.362;10.908;2022-08-24T02:05:37;15.80;68.00
2751;DHT22;1383;48.362;10.908;2022-08-24T02:08:04;15.80;67.90
2751;DHT22;1383;48.362;10.908;2022-08-24T02:10:32;15.70;67.80
2751;DHT22;1383;48.362;10.908;2022-08-24T02:13:01;15.70;68.40
2751;DHT22;1383;48.362;10.908;2022-08-24T02:15:35;15.70;67.00
2751;DHT22;1383;48.362;10.908;2022-08-24T02:18:07;15.70;66.90
2751;DHT22;1383;48.362;10.908;2022-08-24T02:20:41;15.70;66.80
2751;DHT22;1383;48.362;10.908;2022-08-24T02:23:08;15.60;67.20
2751;DHT22;1383;48.362;10.908;2022-08-24T02:25:35;15.60;67.30
2751;DHT22;1383;48.362;10.908;2022-08-24T02:28:03;15.60;68.30
2751;DHT22;1383;48.362;10.908;2022-08-24T02:30:30;15.60;67.80
2751;DHT22;1383;48.362;10.908;2022-08-24T02:32:58;15.60;67.60
2751;DHT22;1383;48.362;10.908;2022-08-24T02:35:27;15.50;67.30
2751;DHT22;1383;48.362;10.908;2022-08-24T02:37:55;15.50;67.50
2751;DHT22;1383;48.362;10.908;2022-08-24T02:40:22;15.50;67.60
2751;DHT22;1383;48.362;10.908;2022-08-24T02:42:49;15.40;68.00
2751;DHT22;1383;48.362;10.908;2022-08-24T02:45:17;15.40;68.50
2751;DHT22;1383;48.362;10.908;2022-08-24T02:47:44;15.30;68.80
2751;DHT22;1383;48.362;10.908;2022-08-24T02:50:13;15.20;69.20
2751;DHT22;1383;48.362;10.908;2022-08-24T02:52:42;15.10;70.20
2751;DHT22;1383;48.362;10.908;2022-08-24T02:55:14;15.10;71.20
2751;DHT22;1383;48.362;10.908;2022-08-24T02:57:46;15.10;71.40
2751;DHT22;1383;48.362;10.908;2022-08-24T03:00:16;15.10;70.90
2751;DHT22;1383;48.362;10.908;2022-08-24T03:02:44;15.10;69.80
2751;DHT22;1383;48.362;10.908;2022-08-24T03:05:12;15.10;70.10
2751;DHT22;1383;48.362;10.908;2022-08-24T03:07:39;15.10;70.30
2751;DHT22;1383;48.362;10.908;2022-08-24T03:10:06;15.00;71.10
2751;DHT22;1383;48.362;10.908;2022-08-24T03:12:33;15.00;70.90
2751;DHT22;1383;48.362;10.908;2022-08-24T03:15:02;15.00;70.60
2751;DHT22;1383;48.362;10.908;2022-08-24T03:17:29;15.00;70.50
2751;DHT22;1383;48.362;10.908;2022-08-24T03:20:00;15.00;71.00
2751;DHT22;1383;48.362;10.908;2022-08-24T03:22:27;15.00;70.70
2751;DHT22;1383;48.362;10.908;2022-08-24T03:24:54;15.00;70.50
2751;DHT22;1383;48.362;10.908;2022-08-24T03:27:21;15.00;71.10
2751;DHT22;1383;48.362;10.908;2022-08-24T03:29:47;15.00;70.40
2751;DHT22;1383;48.362;10.908;2022-08-24T03:32:15;15.00;70.40
2751;DHT22;1383;48.362;10.908;2022-08-24T03:34:43;15.00;70.30
2751;DHT22;1383;48.362;10.908;2022-08-24T03:37:10;15.00;70.30
2751;DHT22;1383;48.362;10.908;2022-08-24T03:39:36;15.00;70.10
2751;DHT22;1383;48.362;10.908;2022-08-24T03:42:04;15.00;70.00
2751;DHT22;1383;48.362;10.908;2022-08-24T03:44:31;15.00;70.20
2751;DHT22;1383;48.362;10.908;2022-08-24T03:46:57;15.00;70.00
2751;DHT22;1383;48.362;10.908;2022-08-24T03:49:24;15.00;69.90
2751;DHT22;1383;48.362;10.908;2022-08-24T03:51:51;15.00;69.90
2751;DHT22;1383;48.362;10.908;2022-08-24T03:54:18;15.00;69.70
2751;DHT22;1383;48.362;10.908;2022-08-24T03:56:45;15.00;69.90
2751;DHT22;1383;48.362;10.908;2022-08-24T03:59:12;14.90;69.70
2751;DHT22;1383;48.362;10.908;2022-08-24T04:01:45;14.90;69.40
2751;DHT22;1383;48.362;10.908;2022-08-24T04:04:12;14.90;69.10
2751;DHT22;1383;48.362;10.908;2022-08-24T04:06:38;14.90;68.70
2751;DHT22;1383;48.362;10.908;2022-08-24T04:09:10;14.90;68.80
2751;DHT22;1383;48.362;10.908;2022-08-24T04:11:37;14.90;68.90
2751;DHT22;1383;48.362;10.908;2022-08-24T04:14:07;14.80;69.70
2751;DHT22;1383;48.362;10.908;2022-08-24T04:16:49;14.80;70.40
2751;DHT22;1383;48.362;10.908;2022-08-24T04:19:23;14.80;70.80
2751;DHT22;1383;48.362;10.908;2022-08-24T04:21:50;14.80;71.00
2751;DHT22;1383;48.362;10.908;2022-08-24T04:24:16;14.70;71.30
2751;DHT22;1383;48.362;10.908;2022-08-24T04:26:43;14.60;71.90
2751;DHT22;1383;48.362;10.908;2022-08-24T04:29:12;14.60;72.40
2751;DHT22;1383;48.362;10.908;2022-08-24T04:31:42;14.70;72.20
2751;DHT22;1383;48.362;10.908;2022-08-24T04:34:10;14.60;72.00
2751;DHT22;1383;48.362;10.908;2022-08-24T04:36:42;14.50;72.20
2751;DHT22;1383;48.362;10.908;2022-08-24T04:39:10;14.50;72.40
2751;DHT22;1383;48.362;10.908;2022-08-24T04:41:37;14.50;72.60
2751;DHT22;1383;48.362;10.908;2022-08-24T04:44:04;14.50;72.40
2751;DHT22;1383;48.362;10.908;2022-08-24T04:46:32;14.60;72.70
2751;DHT22;1383;48.362;10.908;2022-08-24T04:48:58;14.60;72.00
2751;DHT22;1383;48.362;10.908;2022-08-24T04:51:25;14.70;72.00
2751;DHT22;1383;48.362;10.908;2022-08-24T04:53:56;14.70;71.80
2751;DHT22;1383;48.362;10.908;2022-08-24T04:56:23;14.80;71.50
2751;DHT22;1383;48.362;10.908;2022-08-24T04:58:53;14.80;70.80
2751;DHT22;1383;48.362;10.908;2022-08-24T05:01:22;14.90;71.00
2751;DHT22;1383;48.362;10.908;2022-08-24T05:03:51;14.90;69.90
2751;DHT22;1383;48.362;10.908;2022-08-24T05:06:22;15.00;69.20
2751;DHT22;1383;48.362;10.908;2022-08-24T05:08:50;15.00;68.80
2751;DHT22;1383;48.362;10.908;2022-08-24T05:11:18;15.10;67.90
2751;DHT22;1383;48.362;10.908;2022-08-24T05:13:46;15.20;67.00
2751;DHT22;1383;48.362;10.908;2022-08-24T05:16:15;15.30;66.50
2751;DHT22;1383;48.362;10.908;2022-08-24T05:18:44;15.40;65.80
2751;DHT22;1383;48.362;10.908;2022-08-24T05:21:14;15.40;65.00
2751;DHT22;1383;48.362;10.908;2022-08-24T05:23:41;15.50;64.90
2751;DHT22;1383;48.362;10.908;2022-08-24T05:28:42;15.50;65.10
2751;DHT22;1383;48.362;10.908;2022-08-24T05:31:16;15.50;64.50
2751;DHT22;1383;48.362;10.908;2022-08-24T05:33:43;15.50;64.50
2751;DHT22;1383;48.362;10.908;2022-08-24T05:36:21;15.50;64.70
2751;DHT22;1383;48.362;10.908;2022-08-24T05:38:51;15.50;65.30
2751;DHT22;1383;48.362;10.908;2022-08-24T05:41:19;15.60;65.30
2751;DHT22;1383;48.362;10.908;2022-08-24T05:43:46;15.60;65.20
2751;DHT22;1383;48.362;10.908;2022-08-24T05:46:14;15.70;64.90
2751;DHT22;1383;48.362;10.908;2022-08-24T05:48:41;15.70;64.40
2751;DHT22;1383;48.362;10.908;2022-08-24T05:51:18;15.80;64.20
2751;DHT22;1383;48.362;10.908;2022-08-24T05:53:46;16.00;63.80
2751;DHT22;1383;48.362;10.908;2022-08-24T05:56:15;16.00;62.90
2751;DHT22;1383;48.362;10.908;2022-08-24T05:58:43;16.10;62.40
2751;DHT22;1383;48.362;10.908;2022-08-24T06:01:22;16.30;61.60
2751;DHT22;1383;48.362;10.908;2022-08-24T06:03:51;16.50;60.00
2751;DHT22;1383;48.362;10.908;2022-08-24T06:06:20;16.70;59.50
2751;DHT22;1383;48.362;10.908;2022-08-24T06:08:49;16.90;58.50
2751;DHT22;1383;48.362;10.908;2022-08-24T06:14:00;17.20;56.40
2751;DHT22;1383;48.362;10.908;2022-08-24T06:16:37;17.40;54.80
2751;DHT22;1383;48.362;10.908;2022-08-24T06:19:05;17.70;54.10
2751;DHT22;1383;48.362;10.908;2022-08-24T06:21:32;18.10;52.70
2751;DHT22;1383;48.362;10.908;2022-08-24T06:23:59;18.40;51.60
2751;DHT22;1383;48.362;10.908;2022-08-24T06:26:27;18.70;50.60
2751;DHT22;1383;48.362;10.908;2022-08-24T06:29:16;19.20;49.70
2751;DHT22;1383;48.362;10.908;2022-08-24T06:31:45;19.70;47.50
2751;DHT22;1383;48.362;10.908;2022-08-24T06:34:20;20.10;45.70
2751;DHT22;1383;48.362;10.908;2022-08-24T06:36:47;20.40;44.70
2751;DHT22;1383;48.362;10.908;2022-08-24T06:39:14;20.70;43.90
2751;DHT22;1383;48.362;10.908;2022-08-24T06:41:42;21.00;42.80
2751;DHT22;1383;48.362;10.908;2022-08-24T06:44:12;21.00;42.40
2751;DHT22;1383;48.362;10.908;2022-08-24T06:46:39;21.20;42.00
2751;DHT22;1383;48.362;10.908;2022-08-24T06:49:06;21.60;41.70
2751;DHT22;1383;48.362;10.908;2022-08-24T06:51:33;21.90;40.10
2751;DHT22;1383;48.362;10.908;2022-08-24T06:54:00;22.00;39.30
2751;DHT22;1383;48.362;10.908;2022-08-24T06:56:27;22.20;38.90
2751;DHT22;1383;48.362;10.908;2022-08-24T06:58:54;22.40;37.00
2751;DHT22;1383;48.362;10.908;2022-08-24T07:01:23;22.30;36.20
2751;DHT22;1383;48.362;10.908;2022-08-24T07:03:51;22.50;36.80
2751;DHT22;1383;48.362;10.908;2022-08-24T07:06:19;22.80;36.30
2751;DHT22;1383;48.362;10.908;2022-08-24T07:08:46;23.20;36.00
2751;DHT22;1383;48.362;10.908;2022-08-24T07:11:14;23.30;35.00
2751;DHT22;1383;48.362;10.908;2022-08-24T07:13:41;23.30;34.30
2751;DHT22;1383;48.362;10.908;2022-08-24T07:16:08;22.60;35.50
2751;DHT22;1383;48.362;10.908;2022-08-24T07:18:37;22.60;36.80
2751;DHT22;1383;48.362;10.908;2022-08-24T07:21:07;22.70;36.80
2751;DHT22;1383;48.362;10.908;2022-08-24T07:23:34;22.70;36.70
2751;DHT22;1383;48.362;10.908;2022-08-24T07:26:13;22.80;36.60
2751;DHT22;1383;48.362;10.908;2022-08-24T07:29:10;22.80;37.40
2751;DHT22;1383;48.362;10.908;2022-08-24T07:31:57;23.00;37.10
2751;DHT22;1383;48.362;10.908;2022-08-24T07:34:27;23.20;35.20
2751;DHT22;1383;48.362;10.908;2022-08-24T07:36:54;22.90;36.00
2751;DHT22;1383;48.362;10.908;2022-08-24T07:39:21;23.10;36.20
2751;DHT22;1383;48.362;10.908;2022-08-24T07:41:48;23.50;36.00
2751;DHT22;1383;48.362;10.908;2022-08-24T07:44:34;23.90;35.50
2751;DHT22;1383;48.362;10.908;2022-08-24T07:47:03;24.00;34.50
2751;DHT22;1383;48.362;10.908;2022-08-24T07:49:50;23.90;34.70
2751;DHT22;1383;48.362;10.908;2022-08-24T07:52:16;23.80;33.80
2751;DHT22;1383;48.362;10.908;2022-08-24T07:54:43;23.60;35.20
2751;DHT22;1383;48.362;10.908;2022-08-24T07:57:10;23.80;35.60
2751;DHT22;1383;48.362;10.908;2022-08-24T07:59:37;23.90;34.30
2751;DHT22;1383;48.362;10.908;2022-08-24T08:02:04;24.10;34.10
2751;DHT22;1383;48.362;10.908;2022-08-24T08:04:31;23.80;34.60
2751;DHT22;1383;48.362;10.908;2022-08-24T08:06:58;23.80;35.10
2751;DHT22;1383;48.362;10.908;2022-08-24T08:09:27;24.20;35.70
2751;DHT22;1383;48.362;10.908;2022-08-24T08:11:56;24.70;34.80
2751;DHT22;1383;48.362;10.908;2022-08-24T08:14:23;24.80;34.50
2751;DHT22;1383;48.362;10.908;2022-08-24T08:16:50;24.90;34.50
2751;DHT22;1383;48.362;10.908;2022-08-24T08:19:17;25.10;33.70
2751;DHT22;1383;48.362;10.908;2022-08-24T08:21:51;24.60;34.00
2751;DHT22;1383;48.362;10.908;2022-08-24T08:24:40;24.80;35.00
2751;DHT22;1383;48.362;10.908;2022-08-24T08:27:11;25.00;34.00
2751;DHT22;1383;48.362;10.908;2022-08-24T08:29:39;24.80;34.70
2751;DHT22;1383;48.362;10.908;2022-08-24T08:32:07;24.70;35.20
2751;DHT22;1383;48.362;10.908;2022-08-24T08:34:35;24.70;35.10
2751;DHT22;1383;48.362;10.908;2022-08-24T08:37:01;25.00;35.70
2751;DHT22;1383;48.362;10.908;2022-08-24T08:39:29;25.30;34.20
2751;DHT22;1383;48.362;10.908;2022-08-24T08:47:51;25.20;33.90
2751;DHT22;1383;48.362;10.908;2022-08-24T08:53:31;25.90;33.60
2751;DHT22;1383;48.362;10.908;2022-08-24T08:56:05;25.90;32.40
2751;DHT22;1383;48.362;10.908;2022-08-24T08:59:04;25.50;32.90
2751;DHT22;1383;48.362;10.908;2022-08-24T09:10:27;25.60;32.90
2751;DHT22;1383;48.362;10.908;2022-08-24T09:16:06;25.10;32.70
2751;DHT22;1383;48.362;10.908;2022-08-24T09:21:48;26.10;32.30
2751;DHT22;1383;48.362;10.908;2022-08-24T09:24:43;26.20;30.80
2751;DHT22;1383;48.362;10.908;2022-08-24T09:30:25;26.10;30.60
2751;DHT22;1383;48.362;10.908;2022-08-24T09:33:21;25.80;31.00
2751;DHT22;1383;48.362;10.908;2022-08-24T09:36:05;25.60;32.20
2751;DHT22;1383;48.362;10.908;2022-08-24T09:38:48;25.60;31.90
2751;DHT22;1383;48.362;10.908;2022-08-24T09:50:04;26.40;31.10
2751;DHT22;1383;48.362;10.908;2022-08-24T09:55:26;26.50;30.60
2751;DHT22;1383;48.362;10.908;2022-08-24T09:58:17;26.30;30.40
2751;DHT22;1383;48.362;10.908;2022-08-24T10:00:53;26.40;30.10
2751;DHT22;1383;48.362;10.908;2022-08-24T10:09:57;26.20;30.40
2751;DHT22;1383;48.362;10.908;2022-08-24T10:18:55;27.10;29.60
2751;DHT22;1383;48.362;10.908;2022-08-24T10:21:43;26.40;29.10
2751;DHT22;1383;48.362;10.908;2022-08-24T10:38:48;26.70;29.90
2751;DHT22;1383;48.362;10.908;2022-08-24T10:44:48;26.90;29.30
2751;DHT22;1383;48.362;10.908;2022-08-24T10:47:19;27.10;28.80
2751;DHT22;1383;48.362;10.908;2022-08-24T10:58:09;27.30;29.30
2751;DHT22;1383;48.362;10.908;2022-08-24T11:00:39;26.50;29.90
2751;DHT22;1383;48.362;10.908;2022-08-24T11:03:18;26.30;30.30
2751;DHT22;1383;48.362;10.908;2022-08-24T11:05:56;26.20;31.60
2751;DHT22;1383;48.362;10.908;2022-08-24T11:08:30;26.10;31.00
2751;DHT22;1383;48.362;10.908;2022-08-24T11:11:12;25.60;32.10
2751;DHT22;1383;48.362;10.908;2022-08-24T11:16:44;25.50;32.10
2751;DHT22;1383;48.362;10.908;2022-08-24T11:19:13;25.60;32.90
2751;DHT22;1383;48.362;10.908;2022-08-24T11:21:45;25.50;33.60
2751;DHT22;1383;48.362;10.908;2022-08-24T11:24:29;25.40;33.40
2751;DHT22;1383;48.362;10.908;2022-08-24T11:27:00;25.20;33.60
2751;DHT22;1383;48.362;10.908;2022-08-24T11:32:28;24.80;34.50
2751;DHT22;1383;48.362;10.908;2022-08-24T11:35:00;24.90;34.60
2751;DHT22;1383;48.362;10.908;2022-08-24T11:37:34;25.00;34.30
2751;DHT22;1383;48.362;10.908;2022-08-24T11:40:02;25.00;34.00
2751;DHT22;1383;48.362;10.908;2022-08-24T11:42:45;25.00;34.70
2751;DHT22;1383;48.362;10.908;2022-08-24T11:45:19;25.10;34.10
2751;DHT22;1383;48.362;10.908;2022-08-24T11:53:06;25.00;34.50
2751;DHT22;1383;48.362;10.908;2022-08-24T12:04:10;25.30;34.60
2751;DHT22;1383;48.362;10.908;2022-08-24T12:06:49;25.30;34.30
2751;DHT22;1383;48.362;10.908;2022-08-24T12:12:02;25.40;34.50
2751;DHT22;1383;48.362;10.908;2022-08-24T12:14:44;25.30;34.50
2751;DHT22;1383;48.362;10.908;2022-08-24T12:17:25;25.20;34.90
2751;DHT22;1383;48.362;10.908;2022-08-24T12:19:59;25.40;34.80
2751;DHT22;1383;48.362;10.908;2022-08-24T12:22:28;25.50;34.10
2751;DHT22;1383;48.362;10.908;2022-08-24T12:24:59;25.60;33.40
2751;DHT22;1383;48.362;10.908;2022-08-24T12:27:32;25.60;32.90
2751;DHT22;1383;48.362;10.908;2022-08-24T12:30:20;25.70;33.50
2751;DHT22;1383;48.362;10.908;2022-08-24T12:32:52;25.70;33.30
2751;DHT22;1383;48.362;10.908;2022-08-24T12:35:37;25.70;33.50
2751;DHT22;1383;48.362;10.908;2022-08-24T12:38:22;25.80;32.60
2751;DHT22;1383;48.362;10.908;2022-08-24T12:41:04;26.00;32.50
2751;DHT22;1383;48.362;10.908;2022-08-24T12:43:51;26.10;33.10
2751;DHT22;1383;48.362;10.908;2022-08-24T12:46:24;25.80;32.80
2751;DHT22;1383;48.362;10.908;2022-08-24T12:49:16;25.90;32.80
2751;DHT22;1383;48.362;10.908;2022-08-24T13:00:42;25.50;33.40
2751;DHT22;1383;48.362;10.908;2022-08-24T13:03:38;25.40;34.10
2751;DHT22;1383;48.362;10.908;2022-08-24T13:06:19;25.50;33.40
2751;DHT22;1383;48.362;10.908;2022-08-24T13:09:06;25.70;32.70
2751;DHT22;1383;48.362;10.908;2022-08-24T13:11:35;25.90;33.20
2751;DHT22;1383;48.362;10.908;2022-08-24T13:14:22;25.80;33.00
2751;DHT22;1383;48.362;10.908;2022-08-24T13:29:43;25.80;32.80
2751;DHT22;1383;48.362;10.908;2022-08-24T13:32:16;25.90;33.40
2751;DHT22;1383;48.362;10.908;2022-08-24T13:34:45;25.90;32.50
2751;DHT22;1383;48.362;10.908;2022-08-24T13:43:03;26.00;32.60
2751;DHT22;1383;48.362;10.908;2022-08-24T13:45:43;26.00;32.30
2751;DHT22;1383;48.362;10.908;2022-08-24T13:57:20;25.80;33.30
2751;DHT22;1383;48.362;10.908;2022-08-24T14:03:11;25.80;33.60
2751;DHT22;1383;48.362;10.908;2022-08-24T14:05:43;25.80;33.00
2751;DHT22;1383;48.362;10.908;2022-08-24T14:23:22;26.10;32.40
2751;DHT22;1383;48.362;10.908;2022-08-24T14:34:35;25.90;30.80
2751;DHT22;1383;48.362;10.908;2022-08-24T14:37:26;25.80;30.90
2751;DHT22;1383;48.362;10.908;2022-08-24T14:42:56;26.00;30.30
2751;DHT22;1383;48.362;10.908;2022-08-24T14:48:22;26.30;30.30
2751;DHT22;1383;48.362;10.908;2022-08-24T14:51:15;26.20;29.80
2751;DHT22;1383;48.362;10.908;2022-08-24T14:59:08;25.90;31.10
2751;DHT22;1383;48.362;10.908;2022-08-24T15:01:43;25.90;31.20
2751;DHT22;1383;48.362;10.908;2022-08-24T15:07:39;26.20;30.70
2751;DHT22;1383;48.362;10.908;2022-08-24T15:10:13;26.30;30.30
2751;DHT22;1383;48.362;10.908;2022-08-24T15:12:48;26.40;30.70
2751;DHT22;1383;48.362;10.908;2022-08-24T15:15:31;26.20;31.60
2751;DHT22;1383;48.362;10.908;2022-08-24T15:18:34;26.10;31.90
2751;DHT22;1383;48.362;10.908;2022-08-24T15:21:28;26.10;32.20
2751;DHT22;1383;48.362;10.908;2022-08-24T15:29:14;25.70;32.70
2751;DHT22;1383;48.362;10.908;2022-08-24T15:31:42;25.60;33.10
2751;DHT22;1383;48.362;10.908;2022-08-24T15:34:36;25.60;33.40
2751;DHT22;1383;48.362;10.908;2022-08-24T15:37:04;25.60;34.10
2751;DHT22;1383;48.362;10.908;2022-08-24T15:39:32;25.40;34.30
2751;DHT22;1383;48.362;10.908;2022-08-24T15:42:04;25.40;34.30
2751;DHT22;1383;48.362;10.908;2022-08-24T15:44:33;25.40;34.20
2751;DHT22;1383;48.362;10.908;2022-08-24T15:47:25;25.30;34.20
2751;DHT22;1383;48.362;10.908;2022-08-24T15:50:00;25.40;34.60
2751;DHT22;1383;48.362;10.908;2022-08-24T15:52:49;25.40;33.10
2751;DHT22;1383;48.362;10.908;2022-08-24T16:00:37;25.20;34.30
2751;DHT22;1383;48.362;10.908;2022-08-24T16:03:25;25.20;33.90
2751;DHT22;1383;48.362;10.908;2022-08-24T16:05:54;25.30;34.30
2751;DHT22;1383;48.362;10.908;2022-08-24T16:08:22;25.20;34.30
2751;DHT22;1383;48.362;10.908;2022-08-24T16:10:54;25.20;34.70
2751;DHT22;1383;48.362;10.908;2022-08-24T16:18:47;25.20;33.80
2751;DHT22;1383;48.362;10.908;2022-08-24T16:29:50;25.20;33.10
2751;DHT22;1383;48.362;10.908;2022-08-24T16:32:26;25.20;33.20
2751;DHT22;1383;48.362;10.908;2022-08-24T16:37:35;25.20;34.40
2751;DHT22;1383;48.362;10.908;2022-08-24T16:40:03;25.20;34.40
2751;DHT22;1383;48.362;10.908;2022-08-24T16:42:30;25.10;34.50
2751;DHT22;1383;48.362;10.908;2022-08-24T16:44:58;25.10;34.80
2751;DHT22;1383;48.362;10.908;2022-08-24T16:47:27;25.10;34.90
2751;DHT22;1383;48.362;10.908;2022-08-24T16:49:54;25.00;34.90
2751;DHT22;1383;48.362;10.908;2022-08-24T16:52:20;25.00;34.90
2751;DHT22;1383;48.362;10.908;2022-08-24T16:54:47;25.00;35.00
2751;DHT22;1383;48.362;10.908;2022-08-24T16:57:20;24.90;35.50
2751;DHT22;1383;48.362;10.908;2022-08-24T16:59:51;25.00;35.70
2751;DHT22;1383;48.362;10.908;2022-08-24T17:02:19;24.90;36.10
2751;DHT22;1383;48.362;10.908;2022-08-24T17:04:48;24.80;36.10
2751;DHT22;1383;48.362;10.908;2022-08-24T17:07:20;24.80;36.30
2751;DHT22;1383;48.362;10.908;2022-08-24T17:09:48;24.80;36.00
2751;DHT22;1383;48.362;10.908;2022-08-24T17:12:15;24.70;36.20
2751;DHT22;1383;48.362;10.908;2022-08-24T17:14:42;24.60;36.20
2751;DHT22;1383;48.362;10.908;2022-08-24T17:17:13;24.60;36.70
2751;DHT22;1383;48.362;10.908;2022-08-24T17:19:42;24.60;36.70
2751;DHT22;1383;48.362;10.908;2022-08-24T17:22:10;24.50;36.60
2751;DHT22;1383;48.362;10.908;2022-08-24T17:24:42;24.50;37.00
2751;DHT22;1383;48.362;10.908;2022-08-24T17:27:09;24.50;37.10
2751;DHT22;1383;48.362;10.908;2022-08-24T17:29:36;24.50;36.80
2751;DHT22;1383;48.362;10.908;2022-08-24T17:32:03;24.40;37.00
2751;DHT22;1383;48.362;10.908;2022-08-24T17:34:30;24.40;37.20
2751;DHT22;1383;48.362;10.908;2022-08-24T17:36:57;24.40;37.40
2751;DHT22;1383;48.362;10.908;2022-08-24T17:39:24;24.40;37.10
2751;DHT22;1383;48.362;10.908;2022-08-24T17:41:52;24.30;37.10
2751;DHT22;1383;48.362;10.908;2022-08-24T17:44:25;24.20;37.30
2751;DHT22;1383;48.362;10.908;2022-08-24T17:46:54;24.20;37.50
2751;DHT22;1383;48.362;10.908;2022-08-24T17:49:24;24.10;37.80
2751;DHT22;1383;48.362;10.908;2022-08-24T17:51:52;24.10;38.10
2751;DHT22;1383;48.362;10.908;2022-08-24T17:54:21;24.10;38.20
2751;DHT22;1383;48.362;10.908;2022-08-24T17:56:49;24.00;38.50
2751;DHT22;1383;48.362;10.908;2022-08-24T17:59:24;24.00;38.60
2751;DHT22;1383;48.362;10.908;2022-08-24T18:02:02;24.00;38.90
2751;DHT22;1383;48.362;10.908;2022-08-24T18:04:31;24.00;39.20
2751;DHT22;1383;48.362;10.908;2022-08-24T18:07:11;23.90;39.50
2751;DHT22;1383;48.362;10.908;2022-08-24T18:09:52;23.90;39.80
2751;DHT22;1383;48.362;10.908;2022-08-24T18:12:22;23.80;40.00
2751;DHT22;1383;48.362;10.908;2022-08-24T18:14:51;23.70;40.40
2751;DHT22;1383;48.362;10.908;2022-08-24T18:17:21;23.70;41.20
2751;DHT22;1383;48.362;10.908;2022-08-24T18:19:49;23.70;40.90
2751;DHT22;1383;48.362;10.908;2022-08-24T18:22:18;23.70;41.00
2751;DHT22;1383;48.362;10.908;2022-08-24T18:24:45;23.60;41.00
2751;DHT22;1383;48.362;10.908;2022-08-24T18:27:17;23.60;41.40
2751;DHT22;1383;48.362;10.908;2022-08-24T18:29:46;23.50;41.30
2751;DHT22;1383;48.362;10.908;2022-08-24T18:32:20;23.50;41.40
2751;DHT22;1383;48.362;10.908;2022-08-24T18:34:47;23.40;41.70
2751;DHT22;1383;48.362;10.908;2022-08-24T18:37:14;23.40;41.90
2751;DHT22;1383;48.362;10.908;2022-08-24T18:39:41;23.40;42.70
2751;DHT22;1383;48.362;10.908;2022-08-24T18:42:08;23.30;42.10
2751;DHT22;1383;48.362;10.908;2022-08-24T18:44:37;23.20;42.30
2751;DHT22;1383;48.362;10.908;2022-08-24T18:47:05;23.20;42.60
2751;DHT22;1383;48.362;10.908;2022-08-24T18:49:33;23.20;42.60
2751;DHT22;1383;48.362;10.908;2022-08-24T18:52:01;23.00;43.00
2751;DHT22;1383;48.362;10.908;2022-08-24T18:54:33;23.10;43.20
2751;DHT22;1383;48.362;10.908;2022-08-24T18:57:01;23.00;43.20
2751;DHT22;1383;48.362;10.908;2022-08-24T18:59:27;23.00;43.70
2751;DHT22;1383;48.362;10.908;2022-08-24T19:01:55;23.00;43.00
2751;DHT22;1383;48.362;10.908;2022-08-24T19:04:45;23.00;43.10
2751;DHT22;1383;48.362;10.908;2022-08-24T19:07:13;23.00;42.90
2751;DHT22;1383;48.362;10.908;2022-08-24T19:09:40;22.90;43.20
2751;DHT22;1383;48.362;10.908;2022-08-24T19:12:07;22.80;43.50
2751;DHT22;1383;48.362;10.908;2022-08-24T19:14:36;22.80;44.50
2751;DHT22;1383;48.362;10.908;2022-08-24T19:17:03;22.90;44.10
2751;DHT22;1383;48.362;10.908;2022-08-24T19:19:31;22.80;44.30
2751;DHT22;1383;48.362;10.908;2022-08-24T19:21:58;22.90;44.30
2751;DHT22;1383;48.362;10.908;2022-08-24T19:24:28;22.90;44.50
2751;DHT22;1383;48.362;10.908;2022-08-24T19:26:55;22.80;44.50
2751;DHT22;1383;48.362;10.908;2022-08-24T19:29:27;22.80;44.70
2751;DHT22;1383;48.362;10.908;2022-08-24T19:32:19;22.70;44.60
2751;DHT22;1383;48.362;10.908;2022-08-24T19:34:49;22.60;44.80
2751;DHT22;1383;48.362;10.908;2022-08-24T19:37:16;22.60;45.00
2751;DHT22;1383;48.362;10.908;2022-08-24T19:39:43;22.50;45.00
2751;DHT22;1383;48.362;10.908;2022-08-24T19:42:12;22.40;45.40
2751;DHT22;1383;48.362;10.908;2022-08-24T19:44:39;22.40;45.40
2751;DHT22;1383;48.362;10.908;2022-08-24T19:47:26;22.40;45.60